createdAt,value
2023-02-28T00:01:10.326Z,5.78
2023-02-28T00:03:38.250Z,5.82
2023-02-28T00:06:07.389Z,5.63
2023-02-28T00:08:35.673Z,5.63
2023-02-28T00:11:04.868Z,5.60
2023-02-28T00:13:36.618Z,5.74
2023-02-28T00:16:06.895Z,5.96
2023-02-28T00:18:35.005Z,5.95
2023-02-28T00:21:03.020Z,5.52
2023-02-28T00:23:30.902Z,5.81
2023-02-28T00:25:58.931Z,5.93
2023-02-28T00:28:27.583Z,5.91
2023-02-28T00:30:58.677Z,5.76
2023-02-28T00:33:26.948Z,5.34
2023-02-28T00:36:04.856Z,5.31
2023-02-28T00:38:32.854Z,5.92
2023-02-28T00:41:05.683Z,5.64
2023-02-28T00:43:36.013Z,5.67
2023-02-28T00:46:06.649Z,5.77
2023-02-28T00:48:35.021Z,5.27
2023-02-28T00:51:03.314Z,5.77
2023-02-28T00:53:33.432Z,5.75
2023-02-28T00:56:01.605Z,5.95
2023-02-28T00:58:29.649Z,5.52
2023-02-28T01:00:57.727Z,5.63
2023-02-28T01:03:26.988Z,5.81
2023-02-28T01:05:55.032Z,6.02
2023-02-28T01:08:23.134Z,5.91
2023-02-28T01:10:52.140Z,5.65
2023-02-28T01:13:20.595Z,5.42
2023-02-28T01:15:52.261Z,5.54
2023-02-28T01:18:21.470Z,5.20
2023-02-28T01:20:52.726Z,5.51
2023-02-28T01:23:22.572Z,5.69
2023-02-28T01:25:50.826Z,5.90
2023-02-28T01:28:18.887Z,5.99
2023-02-28T01:30:50.282Z,5.90
2023-02-28T01:33:18.440Z,5.88
2023-02-28T01:35:46.342Z,5.88
2023-02-28T01:38:22.582Z,5.83
2023-02-28T01:40:51.519Z,5.65
2023-02-28T01:43:24.603Z,5.77
2023-02-28T01:45:52.941Z,5.88
2023-02-28T01:48:23.048Z,5.93
2023-02-28T01:50:51.982Z,5.79
2023-02-28T01:53:29.058Z,5.81
2023-02-28T01:55:59.879Z,5.60
2023-02-28T01:58:27.955Z,5.21
2023-02-28T02:00:55.955Z,5.34
2023-02-28T02:03:23.949Z,5.38
2023-02-28T02:05:52.060Z,5.02
2023-02-28T02:08:24.742Z,5.01
2023-02-28T02:10:56.413Z,4.92
2023-02-28T02:14:00.469Z,5.11
2023-02-28T02:16:41.080Z,5.28
2023-02-28T02:19:30.471Z,5.21
2023-02-28T02:22:26.873Z,5.18
2023-02-28T02:25:27.760Z,5.23
2023-02-28T02:28:29.301Z,5.06
2023-02-28T02:31:35.461Z,5.12
2023-02-28T02:34:44.423Z,5.00
2023-02-28T02:37:23.424Z,4.92
2023-02-28T02:40:00.383Z,4.83
2023-02-28T02:42:35.414Z,4.75
2023-02-28T02:45:08.554Z,4.75
2023-02-28T02:47:37.606Z,4.77
2023-02-28T02:50:13.520Z,4.73
2023-02-28T02:52:46.610Z,4.69
2023-02-28T02:55:15.764Z,4.62
2023-02-28T02:57:49.531Z,4.52
2023-02-28T03:00:21.339Z,4.45
2023-02-28T03:02:51.171Z,4.46
2023-02-28T03:05:25.947Z,4.61
2023-02-28T03:07:53.846Z,4.47
2023-02-28T03:10:35.239Z,3.95
2023-02-28T03:13:21.211Z,4.18
2023-02-28T03:16:00.320Z,4.46
2023-02-28T03:18:34.347Z,4.47
2023-02-28T03:21:16.892Z,4.31
2023-02-28T03:23:50.231Z,4.43
2023-02-28T03:26:23.423Z,4.39
2023-02-28T03:28:55.633Z,4.35
2023-02-28T03:31:29.352Z,4.25
2023-02-28T03:34:03.561Z,4.22
2023-02-28T03:36:44.972Z,4.41
2023-02-28T03:39:18.227Z,4.23
2023-02-28T03:41:50.592Z,4.19
2023-02-28T03:44:23.924Z,4.13
2023-02-28T03:46:59.323Z,4.19
2023-02-28T03:49:32.553Z,4.09
2023-02-28T03:52:05.072Z,4.12
2023-02-28T03:54:37.231Z,4.03
2023-02-28T03:57:12.786Z,4.07
2023-02-28T03:59:46.512Z,3.99
2023-02-28T04:02:14.482Z,3.94
2023-02-28T04:04:49.419Z,3.89
2023-02-28T04:07:20.624Z,4.06
2023-02-28T04:09:48.576Z,3.90
2023-02-28T04:12:16.494Z,3.95
2023-02-28T04:14:44.391Z,3.90
2023-02-28T04:17:12.256Z,3.98
2023-02-28T04:19:40.135Z,3.94
2023-02-28T04:22:09.612Z,3.84
2023-02-28T04:24:42.282Z,3.77
2023-02-28T04:27:11.261Z,3.93
2023-02-28T04:29:39.181Z,3.98
2023-02-28T04:32:07.440Z,3.83
2023-02-28T04:34:35.415Z,3.65
2023-02-28T04:37:13.450Z,3.76
2023-02-28T04:39:43.888Z,3.73
2023-02-28T04:42:13.092Z,3.59
2023-02-28T04:44:41.028Z,3.76
2023-02-28T04:47:08.975Z,3.68
2023-02-28T04:49:36.862Z,3.73
2023-02-28T04:52:04.844Z,3.75
2023-02-28T04:54:32.741Z,3.66
2023-02-28T04:57:02.519Z,3.56
2023-02-28T04:59:30.525Z,3.47
2023-02-28T05:01:58.459Z,3.51
2023-02-28T05:04:26.373Z,3.50
2023-02-28T05:06:54.237Z,3.57
2023-02-28T05:09:22.121Z,3.48
2023-02-28T05:11:49.971Z,3.44
2023-02-28T05:14:19.217Z,3.46
2023-02-28T05:16:47.092Z,3.48
2023-02-28T05:19:14.948Z,3.46
2023-02-28T05:21:50.040Z,3.44
2023-02-28T05:24:23.866Z,3.47
2023-02-28T05:26:53.843Z,3.35
2023-02-28T05:29:23.362Z,3.43
2023-02-28T05:31:51.615Z,3.43
2023-02-28T05:34:19.632Z,3.51
2023-02-28T05:36:47.527Z,3.51
2023-02-28T05:39:15.491Z,3.42
2023-02-28T05:41:44.400Z,3.51
2023-02-28T05:44:13.282Z,3.40
2023-02-28T05:46:42.526Z,3.48
2023-02-28T05:49:10.446Z,3.47
2023-02-28T05:51:40.713Z,3.57
2023-02-28T05:54:09.298Z,3.63
2023-02-28T05:56:39.923Z,3.70
2023-02-28T05:59:08.413Z,3.69
2023-02-28T06:01:38.365Z,3.68
2023-02-28T06:04:14.287Z,3.70
2023-02-28T06:06:47.508Z,3.69
2023-02-28T06:09:15.859Z,3.72
2023-02-28T06:11:44.214Z,3.81
2023-02-28T06:14:17.110Z,3.84
2023-02-28T06:16:45.408Z,3.83
2023-02-28T06:19:16.007Z,3.75
2023-02-28T06:21:44.358Z,3.75
2023-02-28T06:24:12.582Z,3.80
2023-02-28T06:26:40.516Z,3.88
2023-02-28T06:29:08.451Z,3.77
2023-02-28T06:31:36.398Z,3.87
2023-02-28T06:34:04.662Z,3.81
2023-02-28T06:36:33.945Z,3.87
2023-02-28T06:39:01.857Z,3.88
2023-02-28T06:41:34.365Z,3.96
2023-02-28T06:44:07.280Z,4.00
2023-02-28T06:46:35.223Z,4.00
2023-02-28T06:49:03.176Z,3.91
2023-02-28T06:51:31.296Z,3.95
2023-02-28T06:54:01.985Z,4.03
2023-02-28T06:56:29.994Z,4.07
2023-02-28T06:58:57.942Z,4.11
2023-02-28T07:01:25.965Z,4.13
2023-02-28T07:03:54.645Z,4.18
2023-02-28T07:06:23.517Z,4.17
2023-02-28T07:08:52.448Z,4.14
2023-02-28T07:11:23.452Z,4.21
2023-02-28T07:13:51.950Z,4.30
2023-02-28T07:16:20.299Z,4.36
2023-02-28T07:18:48.223Z,4.33
2023-02-28T07:21:16.470Z,4.47
2023-02-28T07:23:44.445Z,4.55
2023-02-28T07:26:15.719Z,4.67
2023-02-28T07:28:46.327Z,4.71
2023-02-28T07:31:16.030Z,4.72
2023-02-28T07:33:44.428Z,4.78
2023-02-28T07:36:16.222Z,4.72
2023-02-28T07:38:48.384Z,5.10
2023-02-28T07:41:16.991Z,5.51
2023-02-28T07:43:46.787Z,5.54
2023-02-28T07:46:17.172Z,5.37
2023-02-28T07:48:45.823Z,5.15
2023-02-28T07:51:14.067Z,5.64
2023-02-28T07:53:42.025Z,5.92
2023-02-28T07:56:11.693Z,6.37
2023-02-28T07:58:39.583Z,6.55
2023-02-28T08:01:10.140Z,7.21
2023-02-28T08:03:39.095Z,7.93
2023-02-28T08:06:09.283Z,7.90
2023-02-28T08:08:37.178Z,8.07
2023-02-28T08:11:05.664Z,8.17
2023-02-28T08:13:33.558Z,8.58
2023-02-28T08:16:03.711Z,8.42
2023-02-28T08:18:34.685Z,8.74
2023-02-28T08:21:08.546Z,8.54
2023-02-28T08:23:36.482Z,7.67
2023-02-28T08:26:05.164Z,7.83
2023-02-28T08:28:33.463Z,7.60
2023-02-28T08:31:01.470Z,7.80
2023-02-28T08:33:29.663Z,8.03
2023-02-28T08:35:59.312Z,8.50
2023-02-28T08:38:27.193Z,8.98
2023-02-28T08:41:00.373Z,8.46
2023-02-28T08:43:28.284Z,9.38
2023-02-28T08:45:57.922Z,9.35
2023-02-28T08:48:26.323Z,9.52
2023-02-28T08:51:06.789Z,7.72
2023-02-28T08:53:35.809Z,7.15
2023-02-28T08:56:05.796Z,8.13
2023-02-28T08:58:34.572Z,8.14
2023-02-28T09:01:02.958Z,8.83
2023-02-28T09:03:30.960Z,8.37
2023-02-28T09:06:02.899Z,8.85
2023-02-28T09:08:32.259Z,8.12
2023-02-28T09:11:02.242Z,8.39
2023-02-28T09:13:31.330Z,9.08
2023-02-28T09:16:00.192Z,8.86
2023-02-28T09:18:28.697Z,9.65
2023-02-28T09:20:57.263Z,9.75
2023-02-28T09:23:26.725Z,9.51
2023-02-28T09:25:56.204Z,9.28
2023-02-28T09:28:24.312Z,9.18
2023-02-28T09:30:54.565Z,9.01
2023-02-28T09:33:24.143Z,9.44
2023-02-28T09:35:53.246Z,9.77
2023-02-28T09:38:21.163Z,9.32
2023-02-28T09:40:52.747Z,9.54
2023-02-28T09:43:24.256Z,8.89
2023-02-28T09:45:59.623Z,9.25
2023-02-28T09:48:33.671Z,9.22
2023-02-28T09:51:06.078Z,9.16
2023-02-28T09:53:36.037Z,8.46
2023-02-28T09:56:09.793Z,9.62
2023-02-28T09:58:44.111Z,10.03
2023-02-28T10:01:20.871Z,9.38
2023-02-28T10:03:57.801Z,8.76
2023-02-28T10:06:31.205Z,9.66
2023-02-28T10:09:04.393Z,8.09
2023-02-28T10:11:39.349Z,8.23
2023-02-28T10:14:14.238Z,7.34
2023-02-28T10:16:48.425Z,8.96
2023-02-28T10:19:22.896Z,9.91
2023-02-28T10:21:58.508Z,10.58
2023-02-28T10:24:32.553Z,10.08
2023-02-28T10:27:13.395Z,9.49
2023-02-28T10:29:44.510Z,9.48
2023-02-28T10:32:15.879Z,10.01
2023-02-28T10:34:43.850Z,9.72
2023-02-28T10:37:13.432Z,10.30
2023-02-28T10:39:44.341Z,10.95
2023-02-28T10:42:27.279Z,10.04
2023-02-28T10:45:14.869Z,10.58
2023-02-28T10:47:54.739Z,10.46
2023-02-28T10:50:30.643Z,9.59
2023-02-28T10:53:10.663Z,9.92
2023-02-28T10:55:40.302Z,9.79
2023-02-28T10:58:24.350Z,10.83
2023-02-28T11:00:54.237Z,11.47
2023-02-28T11:03:31.094Z,11.69
2023-02-28T11:05:59.778Z,10.96
2023-02-28T11:08:27.839Z,11.15
2023-02-28T11:10:58.701Z,11.50
2023-02-28T11:13:33.241Z,12.17
2023-02-28T11:16:04.648Z,12.87
2023-02-28T11:18:40.032Z,13.10
2023-02-28T11:21:08.524Z,13.71
2023-02-28T11:23:39.351Z,12.92
2023-02-28T11:26:10.643Z,13.55
2023-02-28T11:28:41.532Z,13.20
2023-02-28T11:31:20.481Z,13.32
2023-02-28T11:33:51.831Z,13.84
2023-02-28T11:36:22.783Z,13.50
2023-02-28T11:38:51.467Z,14.16
2023-02-28T11:41:32.296Z,13.57
2023-02-28T11:44:11.686Z,14.02
2023-02-28T11:46:46.132Z,13.78
2023-02-28T11:49:31.965Z,13.39
2023-02-28T11:52:04.101Z,13.24
2023-02-28T11:54:55.040Z,13.72
2023-02-28T11:57:37.520Z,13.00
2023-02-28T12:00:21.343Z,13.38
2023-02-28T12:03:01.862Z,12.97
2023-02-28T12:05:36.210Z,12.77
2023-02-28T12:08:23.115Z,12.45
2023-02-28T12:11:07.898Z,12.42
2023-02-28T12:13:48.039Z,12.43
2023-02-28T12:16:46.949Z,12.23
2023-02-28T12:19:23.043Z,12.93
2023-02-28T12:22:06.005Z,12.83
2023-02-28T12:24:48.380Z,11.59
2023-02-28T12:27:22.676Z,11.75
2023-02-28T12:29:54.135Z,11.59
2023-02-28T12:32:29.627Z,11.89
2023-02-28T12:35:03.056Z,11.89
2023-02-28T12:37:33.966Z,10.56
2023-02-28T12:40:06.866Z,11.39
2023-02-28T12:42:40.102Z,11.54
2023-02-28T12:45:12.767Z,11.28
2023-02-28T12:47:44.720Z,10.99
2023-02-28T12:50:13.417Z,11.33
2023-02-28T12:52:54.365Z,11.46
2023-02-28T12:55:29.097Z,11.09
2023-02-28T12:58:05.368Z,11.15
2023-02-28T13:00:38.291Z,11.08
2023-02-28T13:03:37.517Z,9.95
2023-02-28T13:06:22.089Z,10.33
2023-02-28T13:09:04.385Z,10.68
2023-02-28T13:11:35.473Z,11.06
2023-02-28T13:14:07.491Z,10.39
2023-02-28T13:16:59.315Z,10.55
2023-02-28T13:19:31.384Z,10.43
2023-02-28T13:22:00.691Z,10.94
2023-02-28T13:24:47.866Z,10.69
2023-02-28T13:27:35.897Z,10.94
2023-02-28T13:30:42.276Z,10.85
2023-02-28T13:33:31.060Z,10.85
2023-02-28T13:36:31.058Z,10.90
2023-02-28T13:39:01.575Z,10.86
2023-02-28T13:41:53.580Z,9.48
2023-02-28T13:44:24.659Z,8.72
2023-02-28T13:47:29.621Z,9.52
2023-02-28T13:50:20.707Z,10.32
2023-02-28T13:53:11.076Z,10.54
2023-02-28T13:55:48.212Z,10.42
2023-02-28T13:58:37.603Z,10.72
2023-02-28T14:01:18.999Z,10.84
2023-02-28T14:04:06.604Z,10.28
2023-02-28T14:06:35.548Z,9.98
2023-02-28T14:09:17.762Z,10.23
2023-02-28T14:11:46.974Z,10.40
2023-02-28T14:14:48.888Z,10.53
2023-02-28T14:17:19.175Z,9.94
2023-02-28T14:19:50.996Z,10.33
2023-02-28T14:22:45.624Z,10.53
2023-02-28T14:25:26.371Z,10.14
2023-02-28T14:28:06.841Z,10.45
2023-02-28T14:30:58.807Z,10.29
2023-02-28T14:33:42.451Z,10.30
2023-02-28T14:36:14.105Z,9.93
2023-02-28T14:38:47.354Z,10.09
2023-02-28T14:41:22.555Z,10.13
2023-02-28T14:43:52.951Z,10.36
2023-02-28T14:46:22.089Z,10.01
2023-02-28T14:48:51.539Z,10.16
2023-02-28T14:51:24.527Z,10.16
2023-02-28T14:53:59.349Z,10.16
2023-02-28T14:56:33.076Z,10.32
2023-02-28T14:59:01.146Z,9.72
2023-02-28T15:01:29.197Z,9.96
2023-02-28T15:04:04.151Z,9.65
2023-02-28T15:06:32.994Z,10.02
2023-02-28T15:09:12.809Z,10.24
2023-02-28T15:11:42.770Z,10.05
2023-02-28T15:14:20.075Z,10.19
2023-02-28T15:16:53.089Z,9.70
2023-02-28T15:19:25.224Z,10.07
2023-02-28T15:21:57.239Z,9.40
2023-02-28T15:24:33.812Z,9.39
2023-02-28T15:27:09.301Z,9.37
2023-02-28T15:29:48.518Z,9.82
2023-02-28T15:32:27.416Z,9.48
2023-02-28T15:34:55.577Z,9.60
2023-02-28T15:37:42.775Z,9.61
2023-02-28T15:40:17.180Z,9.67
2023-02-28T15:43:00.701Z,9.49
2023-02-28T15:45:30.628Z,9.66
2023-02-28T15:48:05.684Z,9.52
2023-02-28T15:50:41.479Z,9.71
2023-02-28T15:53:15.444Z,9.61
2023-02-28T15:55:43.416Z,9.53
2023-02-28T15:58:14.894Z,9.35
2023-02-28T16:00:50.406Z,9.29
2023-02-28T16:03:29.172Z,9.35
2023-02-28T16:06:34.094Z,9.49
2023-02-28T16:09:02.291Z,9.17
2023-02-28T16:11:31.576Z,8.91
2023-02-28T16:14:01.019Z,8.91
2023-02-28T16:16:29.146Z,9.08
2023-02-28T16:18:57.333Z,8.99
2023-02-28T16:21:26.968Z,9.15
2023-02-28T16:23:54.838Z,8.90
2023-02-28T16:26:26.048Z,8.84
2023-02-28T16:28:54.283Z,8.93
2023-02-28T16:31:23.734Z,8.88
2023-02-28T16:33:51.717Z,8.77
2023-02-28T16:36:21.813Z,8.84
2023-02-28T16:38:50.152Z,8.84
2023-02-28T16:41:21.591Z,8.88
2023-02-28T16:43:51.927Z,8.57
2023-02-28T16:46:20.654Z,8.63
2023-02-28T16:48:52.424Z,8.50
2023-02-28T16:51:21.056Z,8.58
2023-02-28T16:53:49.100Z,8.57
2023-02-28T16:56:20.905Z,8.47
2023-02-28T16:58:50.356Z,8.57
2023-02-28T17:01:22.704Z,8.27
2023-02-28T17:03:52.227Z,7.87
2023-02-28T17:06:23.121Z,7.92
2023-02-28T17:08:51.492Z,7.97
2023-02-28T17:11:20.382Z,7.89
2023-02-28T17:13:48.805Z,7.98
2023-02-28T17:16:24.629Z,7.87
2023-02-28T17:18:55.371Z,7.67
2023-02-28T17:21:23.328Z,7.68
2023-02-28T17:23:51.525Z,7.84
2023-02-28T17:26:22.082Z,7.76
2023-02-28T17:28:51.877Z,7.92
2023-02-28T17:31:20.225Z,8.05
2023-02-28T17:33:48.148Z,7.76
2023-02-28T17:36:19.835Z,7.77
2023-02-28T17:38:47.703Z,7.73
2023-02-28T17:41:15.884Z,7.65
2023-02-28T17:43:43.691Z,7.71
2023-02-28T17:46:19.307Z,7.58
2023-02-28T17:48:47.189Z,7.74
2023-02-28T17:51:17.810Z,7.81
2023-02-28T17:53:46.221Z,7.84
2023-02-28T17:56:16.174Z,7.60
2023-02-28T17:58:44.150Z,7.61
2023-02-28T18:01:12.926Z,7.53
2023-02-28T18:03:41.319Z,7.27
2023-02-28T18:06:15.705Z,7.24
2023-02-28T18:08:44.957Z,7.35
2023-02-28T18:11:18.268Z,7.17
2023-02-28T18:13:47.739Z,7.31
2023-02-28T18:16:16.282Z,7.39
2023-02-28T18:18:44.676Z,7.40
2023-02-28T18:21:14.871Z,7.17
2023-02-28T18:23:48.627Z,7.32
2023-02-28T18:26:16.986Z,7.41
2023-02-28T18:28:45.572Z,7.27
2023-02-28T18:31:16.260Z,7.24
2023-02-28T18:33:44.897Z,7.13
2023-02-28T18:36:12.794Z,7.02
2023-02-28T18:38:40.749Z,7.17
2023-02-28T18:41:10.658Z,6.93
2023-02-28T18:43:39.446Z,6.85
2023-02-28T18:46:08.757Z,7.01
2023-02-28T18:48:36.688Z,7.19
2023-02-28T18:51:08.787Z,7.20
2023-02-28T18:53:37.271Z,7.05
2023-02-28T18:56:06.596Z,6.88
2023-02-28T18:58:36.182Z,6.96
2023-02-28T19:01:05.919Z,7.08
2023-02-28T19:03:33.963Z,7.01
2023-02-28T19:06:02.022Z,7.04
2023-02-28T19:08:29.872Z,6.93
2023-02-28T19:10:57.748Z,6.88
2023-02-28T19:13:25.644Z,6.87
2023-02-28T19:16:02.645Z,6.82
2023-02-28T19:18:30.551Z,6.84
2023-02-28T19:20:58.502Z,6.83
2023-02-28T19:23:26.638Z,6.80
2023-02-28T19:25:55.859Z,6.75
2023-02-28T19:28:24.174Z,6.76
2023-02-28T19:30:53.000Z,6.70
2023-02-28T19:33:22.379Z,6.66
2023-02-28T19:35:50.309Z,6.69
2023-02-28T19:38:18.492Z,6.66
2023-02-28T19:40:46.874Z,6.62
2023-02-28T19:43:14.858Z,6.51
2023-02-28T19:45:42.793Z,6.51
2023-02-28T19:48:10.795Z,6.47
2023-02-28T19:50:41.392Z,6.41
2023-02-28T19:53:09.308Z,6.39
2023-02-28T19:55:39.148Z,6.34
2023-02-28T19:58:07.137Z,6.35
2023-02-28T20:00:35.152Z,6.31
2023-02-28T20:03:03.032Z,6.22
2023-02-28T20:05:30.949Z,6.14
2023-02-28T20:08:00.490Z,6.08
2023-02-28T20:10:28.397Z,6.08
2023-02-28T20:12:56.261Z,6.10
2023-02-28T20:15:24.453Z,6.07
2023-02-28T20:17:52.887Z,6.08
2023-02-28T20:20:21.008Z,6.02
2023-02-28T20:22:49.151Z,6.02
2023-02-28T20:25:18.601Z,5.95
2023-02-28T20:27:46.615Z,5.95
2023-02-28T20:30:14.622Z,5.94
2023-02-28T20:32:42.551Z,5.94
2023-02-28T20:35:11.680Z,5.91
2023-02-28T20:37:40.070Z,5.88
2023-02-28T20:40:10.028Z,5.82
2023-02-28T20:42:39.410Z,5.76
2023-02-28T20:45:08.422Z,5.62
2023-02-28T20:47:36.312Z,5.70
2023-02-28T20:50:04.259Z,5.69
2023-02-28T20:52:32.236Z,5.67
2023-02-28T20:55:00.113Z,5.71
2023-02-28T20:57:30.400Z,5.61
2023-02-28T20:59:59.706Z,5.57
2023-02-28T21:02:28.190Z,5.70
2023-02-28T21:04:56.100Z,5.78
2023-02-28T21:07:28.655Z,5.60
2023-02-28T21:09:57.218Z,5.58
2023-02-28T21:12:25.184Z,5.45
2023-02-28T21:14:54.221Z,5.39
2023-02-28T21:17:23.653Z,5.34
2023-02-28T21:19:51.534Z,5.20
2023-02-28T21:22:19.510Z,5.10
2023-02-28T21:24:47.427Z,5.18
2023-02-28T21:27:15.695Z,5.10
2023-02-28T21:29:43.600Z,5.11
2023-02-28T21:32:12.203Z,5.14
2023-02-28T21:34:44.789Z,5.06
2023-02-28T21:37:12.719Z,5.06
2023-02-28T21:39:40.668Z,5.02
2023-02-28T21:42:08.624Z,5.11
2023-02-28T21:44:36.525Z,4.92
2023-02-28T21:47:05.317Z,4.84
2023-02-28T21:49:33.408Z,4.89
2023-02-28T21:52:02.813Z,4.77
2023-02-28T21:54:30.735Z,4.80
2023-02-28T21:56:59.758Z,4.82
2023-02-28T21:59:28.572Z,4.79
2023-02-28T22:01:56.805Z,4.82
2023-02-28T22:04:24.854Z,4.79
2023-02-28T22:06:54.843Z,4.80
2023-02-28T22:09:25.351Z,4.84
2023-02-28T22:11:53.324Z,4.85
2023-02-28T22:14:21.408Z,4.81
2023-02-28T22:16:52.254Z,4.78
2023-02-28T22:19:23.704Z,4.73
2023-02-28T22:21:53.843Z,4.72
2023-02-28T22:24:24.385Z,4.64
2023-02-28T22:26:54.387Z,4.64
2023-02-28T22:29:22.517Z,4.58
2023-02-28T22:31:50.746Z,4.67
2023-02-28T22:34:18.693Z,4.56
2023-02-28T22:36:46.713Z,4.46
2023-02-28T22:39:14.716Z,4.51
2023-02-28T22:41:42.595Z,4.58
2023-02-28T22:44:13.941Z,4.57
2023-02-28T22:46:42.014Z,4.57
2023-02-28T22:49:09.974Z,4.61
2023-02-28T22:51:37.895Z,4.44
2023-02-28T22:54:06.172Z,4.37
2023-02-28T22:56:34.331Z,4.37
2023-02-28T22:59:03.120Z,4.44
2023-02-28T23:01:34.567Z,4.45
2023-02-28T23:04:03.101Z,4.49
2023-02-28T23:06:33.990Z,4.31
2023-02-28T23:09:05.542Z,4.33
2023-02-28T23:11:36.972Z,4.42
2023-02-28T23:14:05.160Z,4.45
2023-02-28T23:16:37.733Z,4.32
2023-02-28T23:19:08.046Z,4.19
2023-02-28T23:21:39.655Z,4.17
2023-02-28T23:24:14.384Z,4.26
2023-02-28T23:26:45.076Z,4.34
2023-02-28T23:29:13.896Z,4.32
2023-02-28T23:31:43.656Z,4.18
2023-02-28T23:34:12.289Z,4.20
2023-02-28T23:36:43.486Z,4.06
2023-02-28T23:39:11.706Z,4.03
2023-02-28T23:41:39.694Z,4.04
2023-02-28T23:44:07.727Z,4.11
2023-02-28T23:46:35.648Z,4.13
2023-02-28T23:49:05.249Z,4.14
2023-02-28T23:51:33.258Z,4.11
2023-02-28T23:54:03.056Z,4.12
2023-02-28T23:56:31.838Z,4.09
2023-02-28T23:59:00.117Z,4.07
